sensor_id;sensor_type;location;lat;lon;timestamp;temperature;humidity
70606;DHT22;58173;52.500;5.494;2023-03-08T00:02:06;2.40;79.90
70606;DHT22;58173;52.500;5.494;2023-03-08T00:04:33;2.40;79.90
70606;DHT22;58173;52.500;5.494;2023-03-08T00:07:00;2.30;79.80
70606;DHT22;58173;52.500;5.494;2023-03-08T00:09:27;2.30;79.90
70606;DHT22;58173;52.500;5.494;2023-03-08T00:11:54;2.20;79.80
70606;DHT22;58173;52.500;5.494;2023-03-08T00:14:21;2.20;80.00
70606;DHT22;58173;52.500;5.494;2023-03-08T00:16:48;2.20;80.00
70606;DHT22;58173;52.500;5.494;2023-03-08T00:19:15;2.20;80.10
70606;DHT22;58173;52.500;5.494;2023-03-08T00:21:42;2.10;79.90
70606;DHT22;58173;52.500;5.494;2023-03-08T00:24:10;2.10;80.00
70606;DHT22;58173;52.500;5.494;2023-03-08T00:26:37;2.10;80.10
70606;DHT22;58173;52.500;5.494;2023-03-08T00:29:04;2.10;80.10
70606;DHT22;58173;52.500;5.494;2023-03-08T00:31:32;2.00;80.00
70606;DHT22;58173;52.500;5.494;2023-03-08T00:33:59;2.00;80.10
70606;DHT22;58173;52.500;5.494;2023-03-08T00:36:25;2.00;80.20
70606;DHT22;58173;52.500;5.494;2023-03-08T00:38:53;1.90;80.30
70606;DHT22;58173;52.500;5.494;2023-03-08T00:41:22;1.90;80.40
70606;DHT22;58173;52.500;5.494;2023-03-08T00:43:49;1.90;80.20
70606;DHT22;58173;52.500;5.494;2023-03-08T00:46:16;1.90;80.20
70606;DHT22;58173;52.500;5.494;2023-03-08T00:48:44;1.90;80.20
70606;DHT22;58173;52.500;5.494;2023-03-08T00:51:13;1.90;80.40
70606;DHT22;58173;52.500;5.494;2023-03-08T00:53:40;1.90;80.50
70606;DHT22;58173;52.500;5.494;2023-03-08T00:56:07;1.80;80.40
70606;DHT22;58173;52.500;5.494;2023-03-08T00:58:35;1.80;80.40
70606;DHT22;58173;52.500;5.494;2023-03-08T01:01:03;1.80;80.60
70606;DHT22;58173;52.500;5.494;2023-03-08T01:03:30;1.80;80.70
70606;DHT22;58173;52.500;5.494;2023-03-08T01:05:58;1.80;80.80
70606;DHT22;58173;52.500;5.494;2023-03-08T01:08:25;1.90;80.90
70606;DHT22;58173;52.500;5.494;2023-03-08T01:10:57;1.90;81.00
70606;DHT22;58173;52.500;5.494;2023-03-08T01:13:27;1.90;81.10
70606;DHT22;58173;52.500;5.494;2023-03-08T01:15:54;2.00;81.30
70606;DHT22;58173;52.500;5.494;2023-03-08T01:18:21;2.00;81.40
70606;DHT22;58173;52.500;5.494;2023-03-08T01:20:58;2.00;81.60
70606;DHT22;58173;52.500;5.494;2023-03-08T01:23:25;2.10;81.80
70606;DHT22;58173;52.500;5.494;2023-03-08T01:26:04;2.10;81.90
70606;DHT22;58173;52.500;5.494;2023-03-08T01:28:32;2.20;81.60
70606;DHT22;58173;52.500;5.494;2023-03-08T01:31:08;2.20;81.30
70606;DHT22;58173;52.500;5.494;2023-03-08T01:33:39;2.20;81.00
70606;DHT22;58173;52.500;5.494;2023-03-08T01:36:09;2.20;80.80
70606;DHT22;58173;52.500;5.494;2023-03-08T01:38:36;2.20;80.50
70606;DHT22;58173;52.500;5.494;2023-03-08T01:41:05;2.30;80.40
70606;DHT22;58173;52.500;5.494;2023-03-08T01:43:35;2.20;80.20
70606;DHT22;58173;52.500;5.494;2023-03-08T01:46:23;2.30;80.30
70606;DHT22;58173;52.500;5.494;2023-03-08T01:54:53;2.20;79.80
70606;DHT22;58173;52.500;5.494;2023-03-08T01:57:10;2.20;79.80
70606;DHT22;58173;52.500;5.494;2023-03-08T01:59:39;2.20;79.80
70606;DHT22;58173;52.500;5.494;2023-03-08T02:02:06;2.20;79.80
70606;DHT22;58173;52.500;5.494;2023-03-08T02:04:34;2.20;79.80
70606;DHT22;58173;52.500;5.494;2023-03-08T02:07:01;2.20;79.80
70606;DHT22;58173;52.500;5.494;2023-03-08T02:09:28;2.20;79.80
70606;DHT22;58173;52.500;5.494;2023-03-08T02:12:01;2.20;79.70
70606;DHT22;58173;52.500;5.494;2023-03-08T02:14:30;2.20;79.80
70606;DHT22;58173;52.500;5.494;2023-03-08T02:16:57;2.30;79.90
70606;DHT22;58173;52.500;5.494;2023-03-08T02:19:30;2.30;79.90
70606;DHT22;58173;52.500;5.494;2023-03-08T02:22:15;2.30;79.90
70606;DHT22;58173;52.500;5.494;2023-03-08T02:24:44;2.20;80.00
70606;DHT22;58173;52.500;5.494;2023-03-08T02:27:23;2.30;80.10
70606;DHT22;58173;52.500;5.494;2023-03-08T02:29:52;2.20;80.30
70606;DHT22;58173;52.500;5.494;2023-03-08T02:32:21;2.20;80.40
70606;DHT22;58173;52.500;5.494;2023-03-08T02:34:48;2.20;80.60
70606;DHT22;58173;52.500;5.494;2023-03-08T02:37:15;2.20;80.60
70606;DHT22;58173;52.500;5.494;2023-03-08T02:39:42;2.20;80.70
70606;DHT22;58173;52.500;5.494;2023-03-08T02:42:09;2.20;80.80
70606;DHT22;58173;52.500;5.494;2023-03-08T02:44:36;2.20;80.70
70606;DHT22;58173;52.500;5.494;2023-03-08T02:47:03;2.20;80.80
70606;DHT22;58173;52.500;5.494;2023-03-08T02:49:30;2.20;81.60
70606;DHT22;58173;52.500;5.494;2023-03-08T02:51:57;2.10;80.70
70606;DHT22;58173;52.500;5.494;2023-03-08T02:54:23;2.10;80.80
70606;DHT22;58173;52.500;5.494;2023-03-08T02:56:50;2.10;80.90
70606;DHT22;58173;52.500;5.494;2023-03-08T02:59:17;2.10;80.90
70606;DHT22;58173;52.500;5.494;2023-03-08T03:01:44;2.10;80.90
70606;DHT22;58173;52.500;5.494;2023-03-08T03:04:11;2.00;80.90
70606;DHT22;58173;52.500;5.494;2023-03-08T03:06:37;2.00;80.90
70606;DHT22;58173;52.500;5.494;2023-03-08T03:09:06;2.00;80.90
70606;DHT22;58173;52.500;5.494;2023-03-08T03:11:33;2.00;81.00
70606;DHT22;58173;52.500;5.494;2023-03-08T03:14:00;2.00;81.00
70606;DHT22;58173;52.500;5.494;2023-03-08T03:16:33;2.00;81.20
70606;DHT22;58173;52.500;5.494;2023-03-08T03:19:00;2.00;81.40
70606;DHT22;58173;52.500;5.494;2023-03-08T03:21:26;1.90;81.30
70606;DHT22;58173;52.500;5.494;2023-03-08T03:23:54;1.90;81.30
70606;DHT22;58173;52.500;5.494;2023-03-08T03:26:28;1.90;81.50
70606;DHT22;58173;52.500;5.494;2023-03-08T03:28:57;1.90;81.50
70606;DHT22;58173;52.500;5.494;2023-03-08T03:31:28;1.90;81.60
70606;DHT22;58173;52.500;5.494;2023-03-08T03:33:56;1.90;81.70
70606;DHT22;58173;52.500;5.494;2023-03-08T03:36:25;1.80;81.80
70606;DHT22;58173;52.500;5.494;2023-03-08T03:38:52;1.80;81.80
70606;DHT22;58173;52.500;5.494;2023-03-08T03:41:21;1.80;81.80
70606;DHT22;58173;52.500;5.494;2023-03-08T03:43:58;1.80;81.80
70606;DHT22;58173;52.500;5.494;2023-03-08T03:46:25;1.80;81.60
70606;DHT22;58173;52.500;5.494;2023-03-08T03:48:54;1.70;81.60
70606;DHT22;58173;52.500;5.494;2023-03-08T03:51:23;1.60;81.60
70606;DHT22;58173;52.500;5.494;2023-03-08T03:54:01;1.60;81.80
70606;DHT22;58173;52.500;5.494;2023-03-08T03:56:28;1.60;81.80
70606;DHT22;58173;52.500;5.494;2023-03-08T03:58:58;1.60;81.80
70606;DHT22;58173;52.500;5.494;2023-03-08T04:01:28;1.60;81.90
70606;DHT22;58173;52.500;5.494;2023-03-08T04:04:18;1.60;81.80
70606;DHT22;58173;52.500;5.494;2023-03-08T04:06:46;1.50;81.90
70606;DHT22;58173;52.500;5.494;2023-03-08T04:09:17;1.50;81.90
70606;DHT22;58173;52.500;5.494;2023-03-08T04:11:50;1.50;81.90
70606;DHT22;58173;52.500;5.494;2023-03-08T04:14:19;1.50;81.80
70606;DHT22;58173;52.500;5.494;2023-03-08T04:16:48;1.50;81.80
70606;DHT22;58173;52.500;5.494;2023-03-08T04:19:24;1.40;81.90
70606;DHT22;58173;52.500;5.494;2023-03-08T04:21:54;1.40;82.00
70606;DHT22;58173;52.500;5.494;2023-03-08T04:24:23;1.40;82.00
70606;DHT22;58173;52.500;5.494;2023-03-08T04:26:55;1.40;82.00
70606;DHT22;58173;52.500;5.494;2023-03-08T04:29:22;1.40;82.00
70606;DHT22;58173;52.500;5.494;2023-03-08T04:31:49;1.40;82.10
70606;DHT22;58173;52.500;5.494;2023-03-08T04:34:18;1.30;82.10
70606;DHT22;58173;52.500;5.494;2023-03-08T04:36:48;1.30;82.10
70606;DHT22;58173;52.500;5.494;2023-03-08T04:39:15;1.30;82.10
70606;DHT22;58173;52.500;5.494;2023-03-08T04:41:42;1.30;82.00
70606;DHT22;58173;52.500;5.494;2023-03-08T04:44:20;1.30;82.10
70606;DHT22;58173;52.500;5.494;2023-03-08T04:46:49;1.20;82.10
70606;DHT22;58173;52.500;5.494;2023-03-08T04:49:24;1.20;82.10
70606;DHT22;58173;52.500;5.494;2023-03-08T04:51:56;1.20;82.20
70606;DHT22;58173;52.500;5.494;2023-03-08T04:54:26;1.20;82.30
70606;DHT22;58173;52.500;5.494;2023-03-08T04:57:01;1.10;82.20
70606;DHT22;58173;52.500;5.494;2023-03-08T04:59:29;1.10;82.30
70606;DHT22;58173;52.500;5.494;2023-03-08T05:01:59;1.20;82.30
70606;DHT22;58173;52.500;5.494;2023-03-08T05:04:28;1.20;82.30
70606;DHT22;58173;52.500;5.494;2023-03-08T05:06:55;1.20;82.50
70606;DHT22;58173;52.500;5.494;2023-03-08T05:09:24;1.10;82.60
70606;DHT22;58173;52.500;5.494;2023-03-08T05:11:52;1.20;82.70
70606;DHT22;58173;52.500;5.494;2023-03-08T05:14:20;1.20;82.80
70606;DHT22;58173;52.500;5.494;2023-03-08T05:16:48;1.10;82.70
70606;DHT22;58173;52.500;5.494;2023-03-08T05:19:15;1.20;82.80
70606;DHT22;58173;52.500;5.494;2023-03-08T05:21:49;1.20;82.80
70606;DHT22;58173;52.500;5.494;2023-03-08T05:24:18;1.20;82.90
70606;DHT22;58173;52.500;5.494;2023-03-08T05:26:47;1.20;82.90
70606;DHT22;58173;52.500;5.494;2023-03-08T05:29:16;1.20;83.00
70606;DHT22;58173;52.500;5.494;2023-03-08T05:31:43;1.20;83.10
70606;DHT22;58173;52.500;5.494;2023-03-08T05:34:13;1.20;83.10
70606;DHT22;58173;52.500;5.494;2023-03-08T05:36:44;1.20;83.20
70606;DHT22;58173;52.500;5.494;2023-03-08T05:39:11;1.30;83.40
70606;DHT22;58173;52.500;5.494;2023-03-08T05:42:01;1.30;83.40
70606;DHT22;58173;52.500;5.494;2023-03-08T05:44:35;1.30;83.30
70606;DHT22;58173;52.500;5.494;2023-03-08T05:47:02;1.30;83.30
70606;DHT22;58173;52.500;5.494;2023-03-08T05:49:30;1.20;83.10
70606;DHT22;58173;52.500;5.494;2023-03-08T05:51:57;1.20;83.20
70606;DHT22;58173;52.500;5.494;2023-03-08T05:54:25;1.20;83.30
70606;DHT22;58173;52.500;5.494;2023-03-08T05:56:56;1.20;83.10
70606;DHT22;58173;52.500;5.494;2023-03-08T05:59:24;1.20;83.10
70606;DHT22;58173;52.500;5.494;2023-03-08T06:01:54;1.20;83.10
70606;DHT22;58173;52.500;5.494;2023-03-08T06:04:32;1.20;83.10
70606;DHT22;58173;52.500;5.494;2023-03-08T06:06:59;1.20;83.10
70606;DHT22;58173;52.500;5.494;2023-03-08T06:09:32;1.20;83.20
70606;DHT22;58173;52.500;5.494;2023-03-08T06:12:00;1.10;83.00
70606;DHT22;58173;52.500;5.494;2023-03-08T06:14:28;1.20;82.90
70606;DHT22;58173;52.500;5.494;2023-03-08T06:16:56;1.10;83.10
70606;DHT22;58173;52.500;5.494;2023-03-08T06:19:25;1.10;83.20
70606;DHT22;58173;52.500;5.494;2023-03-08T06:21:54;1.10;83.10
70606;DHT22;58173;52.500;5.494;2023-03-08T06:24:22;1.10;83.30
70606;DHT22;58173;52.500;5.494;2023-03-08T06:26:49;1.10;83.40
70606;DHT22;58173;52.500;5.494;2023-03-08T06:29:16;1.20;83.70
70606;DHT22;58173;52.500;5.494;2023-03-08T06:31:43;1.20;83.90
70606;DHT22;58173;52.500;5.494;2023-03-08T06:34:11;1.20;84.10
70606;DHT22;58173;52.500;5.494;2023-03-08T06:36:39;1.20;84.10
70606;DHT22;58173;52.500;5.494;2023-03-08T06:39:06;1.30;84.20
70606;DHT22;58173;52.500;5.494;2023-03-08T06:41:34;1.30;84.30
70606;DHT22;58173;52.500;5.494;2023-03-08T06:44:02;1.30;84.20
70606;DHT22;58173;52.500;5.494;2023-03-08T06:46:28;1.30;84.30
70606;DHT22;58173;52.500;5.494;2023-03-08T06:48:55;1.30;84.30
70606;DHT22;58173;52.500;5.494;2023-03-08T06:51:23;1.40;84.30
70606;DHT22;58173;52.500;5.494;2023-03-08T06:53:50;1.40;84.30
70606;DHT22;58173;52.500;5.494;2023-03-08T06:56:20;1.40;84.20
70606;DHT22;58173;52.500;5.494;2023-03-08T06:58:47;1.40;84.10
70606;DHT22;58173;52.500;5.494;2023-03-08T07:01:14;1.40;84.20
70606;DHT22;58173;52.500;5.494;2023-03-08T07:03:41;1.50;84.20
70606;DHT22;58173;52.500;5.494;2023-03-08T07:06:10;1.50;84.30
70606;DHT22;58173;52.500;5.494;2023-03-08T07:08:37;1.50;84.20
70606;DHT22;58173;52.500;5.494;2023-03-08T07:11:07;1.50;84.30
70606;DHT22;58173;52.500;5.494;2023-03-08T07:13:36;1.50;84.40
70606;DHT22;58173;52.500;5.494;2023-03-08T07:16:11;1.60;84.40
70606;DHT22;58173;52.500;5.494;2023-03-08T07:18:38;1.60;84.40
70606;DHT22;58173;52.500;5.494;2023-03-08T07:21:06;1.60;84.50
70606;DHT22;58173;52.500;5.494;2023-03-08T07:23:33;1.60;84.50
70606;DHT22;58173;52.500;5.494;2023-03-08T07:26:03;1.70;84.60
70606;DHT22;58173;52.500;5.494;2023-03-08T07:28:30;1.70;84.60
70606;DHT22;58173;52.500;5.494;2023-03-08T07:30:57;1.70;84.70
70606;DHT22;58173;52.500;5.494;2023-03-08T07:33:24;1.70;84.60
70606;DHT22;58173;52.500;5.494;2023-03-08T07:35:51;1.70;84.50
70606;DHT22;58173;52.500;5.494;2023-03-08T07:38:18;1.80;84.60
70606;DHT22;58173;52.500;5.494;2023-03-08T07:40:45;1.80;84.70
70606;DHT22;58173;52.500;5.494;2023-03-08T07:43:11;1.90;84.70
70606;DHT22;58173;52.500;5.494;2023-03-08T07:45:59;1.90;84.70
70606;DHT22;58173;52.500;5.494;2023-03-08T07:48:28;2.10;84.70
70606;DHT22;58173;52.500;5.494;2023-03-08T07:50:59;2.00;84.70
70606;DHT22;58173;52.500;5.494;2023-03-08T07:53:28;2.00;84.60
70606;DHT22;58173;52.500;5.494;2023-03-08T07:55:57;2.00;84.50
70606;DHT22;58173;52.500;5.494;2023-03-08T07:58:25;2.10;84.60
70606;DHT22;58173;52.500;5.494;2023-03-08T08:00:52;2.10;84.50
70606;DHT22;58173;52.500;5.494;2023-03-08T08:03:20;2.20;84.40
70606;DHT22;58173;52.500;5.494;2023-03-08T08:05:47;2.20;84.30
70606;DHT22;58173;52.500;5.494;2023-03-08T08:08:14;2.30;84.40
70606;DHT22;58173;52.500;5.494;2023-03-08T08:10:41;2.30;84.30
70606;DHT22;58173;52.500;5.494;2023-03-08T08:13:08;2.30;84.20
70606;DHT22;58173;52.500;5.494;2023-03-08T08:15:35;2.40;84.10
70606;DHT22;58173;52.500;5.494;2023-03-08T08:18:02;2.40;84.10
70606;DHT22;58173;52.500;5.494;2023-03-08T08:20:29;2.50;84.20
70606;DHT22;58173;52.500;5.494;2023-03-08T08:22:56;2.50;84.00
70606;DHT22;58173;52.500;5.494;2023-03-08T08:25:23;2.50;83.80
70606;DHT22;58173;52.500;5.494;2023-03-08T08:27:51;2.60;83.80
70606;DHT22;58173;52.500;5.494;2023-03-08T08:30:18;2.60;83.80
70606;DHT22;58173;52.500;5.494;2023-03-08T08:32:45;2.70;83.70
70606;DHT22;58173;52.500;5.494;2023-03-08T08:35:11;2.70;83.70
70606;DHT22;58173;52.500;5.494;2023-03-08T08:37:38;2.80;83.50
70606;DHT22;58173;52.500;5.494;2023-03-08T08:40:07;2.80;83.50
70606;DHT22;58173;52.500;5.494;2023-03-08T08:42:34;2.90;83.50
70606;DHT22;58173;52.500;5.494;2023-03-08T08:45:00;2.90;83.50
70606;DHT22;58173;52.500;5.494;2023-03-08T08:47:28;2.90;83.20
70606;DHT22;58173;52.500;5.494;2023-03-08T08:49:55;3.00;82.90
70606;DHT22;58173;52.500;5.494;2023-03-08T08:52:22;3.10;83.00
70606;DHT22;58173;52.500;5.494;2023-03-08T08:54:48;3.10;82.80
70606;DHT22;58173;52.500;5.494;2023-03-08T08:57:17;3.10;82.80
70606;DHT22;58173;52.500;5.494;2023-03-08T08:59:45;3.10;82.70
70606;DHT22;58173;52.500;5.494;2023-03-08T09:02:12;3.20;82.70
70606;DHT22;58173;52.500;5.494;2023-03-08T09:04:39;3.20;82.50
70606;DHT22;58173;52.500;5.494;2023-03-08T09:07:06;3.30;82.30
70606;DHT22;58173;52.500;5.494;2023-03-08T09:09:33;3.30;82.10
70606;DHT22;58173;52.500;5.494;2023-03-08T09:12:00;3.30;82.00
70606;DHT22;58173;52.500;5.494;2023-03-08T09:14:26;3.40;82.80
70606;DHT22;58173;52.500;5.494;2023-03-08T09:16:53;3.30;82.00
70606;DHT22;58173;52.500;5.494;2023-03-08T09:19:20;3.40;81.90
70606;DHT22;58173;52.500;5.494;2023-03-08T09:21:47;3.40;81.60
70606;DHT22;58173;52.500;5.494;2023-03-08T09:24:15;3.40;81.60
70606;DHT22;58173;52.500;5.494;2023-03-08T09:26:42;3.50;81.80
70606;DHT22;58173;52.500;5.494;2023-03-08T09:29:10;3.60;81.70
70606;DHT22;58173;52.500;5.494;2023-03-08T09:31:37;3.60;81.50
70606;DHT22;58173;52.500;5.494;2023-03-08T09:34:04;3.70;81.30
70606;DHT22;58173;52.500;5.494;2023-03-08T09:36:36;3.70;81.20
70606;DHT22;58173;52.500;5.494;2023-03-08T09:39:06;3.70;80.90
70606;DHT22;58173;52.500;5.494;2023-03-08T09:41:45;3.70;80.70
70606;DHT22;58173;52.500;5.494;2023-03-08T09:44:32;3.80;80.50
70606;DHT22;58173;52.500;5.494;2023-03-08T09:55:28;4.00;79.90
70606;DHT22;58173;52.500;5.494;2023-03-08T10:01:33;4.00;79.70
70606;DHT22;58173;52.500;5.494;2023-03-08T10:04:27;4.00;79.40
70606;DHT22;58173;52.500;5.494;2023-03-08T10:07:15;4.00;79.10
70606;DHT22;58173;52.500;5.494;2023-03-08T10:10:22;4.10;78.90
70606;DHT22;58173;52.500;5.494;2023-03-08T10:15:27;4.10;79.50
70606;DHT22;58173;52.500;5.494;2023-03-08T10:20:30;4.20;79.70
70606;DHT22;58173;52.500;5.494;2023-03-08T10:23:08;4.30;79.70
70606;DHT22;58173;52.500;5.494;2023-03-08T10:25:36;4.40;80.00
70606;DHT22;58173;52.500;5.494;2023-03-08T10:28:30;4.50;79.70
70606;DHT22;58173;52.500;5.494;2023-03-08T10:30:58;4.60;79.50
70606;DHT22;58173;52.500;5.494;2023-03-08T10:33:34;4.70;79.40
70606;DHT22;58173;52.500;5.494;2023-03-08T10:36:23;4.70;78.90
70606;DHT22;58173;52.500;5.494;2023-03-08T10:39:07;4.80;78.30
70606;DHT22;58173;52.500;5.494;2023-03-08T10:41:43;4.90;78.00
70606;DHT22;58173;52.500;5.494;2023-03-08T10:46:55;4.90;77.60
70606;DHT22;58173;52.500;5.494;2023-03-08T10:49:23;4.90;77.40
70606;DHT22;58173;52.500;5.494;2023-03-08T10:51:59;5.00;77.20
70606;DHT22;58173;52.500;5.494;2023-03-08T10:54:27;5.00;77.10
70606;DHT22;58173;52.500;5.494;2023-03-08T10:56:59;5.00;77.10
70606;DHT22;58173;52.500;5.494;2023-03-08T10:59:31;5.00;76.90
70606;DHT22;58173;52.500;5.494;2023-03-08T11:02:02;5.00;77.00
70606;DHT22;58173;52.500;5.494;2023-03-08T11:05:00;5.10;77.00
70606;DHT22;58173;52.500;5.494;2023-03-08T11:07:30;5.20;77.20
70606;DHT22;58173;52.500;5.494;2023-03-08T11:10:18;5.20;77.10
70606;DHT22;58173;52.500;5.494;2023-03-08T11:12:46;5.20;77.00
70606;DHT22;58173;52.500;5.494;2023-03-08T11:15:17;5.30;76.90
70606;DHT22;58173;52.500;5.494;2023-03-08T11:17:55;5.30;76.60
70606;DHT22;58173;52.500;5.494;2023-03-08T11:20:29;5.40;76.70
70606;DHT22;58173;52.500;5.494;2023-03-08T11:23:10;5.40;76.60
70606;DHT22;58173;52.500;5.494;2023-03-08T11:25:51;5.60;76.60
70606;DHT22;58173;52.500;5.494;2023-03-08T11:28:46;5.70;76.00
70606;DHT22;58173;52.500;5.494;2023-03-08T11:31:38;5.70;75.80
70606;DHT22;58173;52.500;5.494;2023-03-08T11:39:44;5.80;74.60
70606;DHT22;58173;52.500;5.494;2023-03-08T11:44:58;5.80;74.40
70606;DHT22;58173;52.500;5.494;2023-03-08T11:50:22;5.90;74.40
70606;DHT22;58173;52.500;5.494;2023-03-08T11:58:37;6.10;73.80
70606;DHT22;58173;52.500;5.494;2023-03-08T12:01:13;6.10;73.90
70606;DHT22;58173;52.500;5.494;2023-03-08T12:03:44;6.20;73.80
70606;DHT22;58173;52.500;5.494;2023-03-08T12:06:37;6.20;73.50
70606;DHT22;58173;52.500;5.494;2023-03-08T12:09:32;6.20;73.20
70606;DHT22;58173;52.500;5.494;2023-03-08T12:19:45;6.50;72.10
70606;DHT22;58173;52.500;5.494;2023-03-08T12:25:08;6.70;71.40
70606;DHT22;58173;52.500;5.494;2023-03-08T12:30:15;6.80;70.90
70606;DHT22;58173;52.500;5.494;2023-03-08T12:32:44;7.00;72.10
70606;DHT22;58173;52.500;5.494;2023-03-08T12:35:23;7.20;71.80
70606;DHT22;58173;52.500;5.494;2023-03-08T12:37:59;7.60;71.70
70606;DHT22;58173;52.500;5.494;2023-03-08T12:40:43;8.00;71.40
70606;DHT22;58173;52.500;5.494;2023-03-08T12:51:02;8.40;65.00
70606;DHT22;58173;52.500;5.494;2023-03-08T12:53:37;8.30;64.90
70606;DHT22;58173;52.500;5.494;2023-03-08T12:58:49;7.90;65.00
70606;DHT22;58173;52.500;5.494;2023-03-08T13:01:30;7.70;65.40
70606;DHT22;58173;52.500;5.494;2023-03-08T13:03:57;7.60;65.60
70606;DHT22;58173;52.500;5.494;2023-03-08T13:09:04;7.40;66.30
70606;DHT22;58173;52.500;5.494;2023-03-08T13:11:50;7.40;66.80
70606;DHT22;58173;52.500;5.494;2023-03-08T13:14:41;7.30;66.70
70606;DHT22;58173;52.500;5.494;2023-03-08T13:18:00;7.30;66.20
70606;DHT22;58173;52.500;5.494;2023-03-08T13:23:27;7.30;65.70
70606;DHT22;58173;52.500;5.494;2023-03-08T13:28:42;7.30;65.70
70606;DHT22;58173;52.500;5.494;2023-03-08T13:31:19;7.30;65.40
70606;DHT22;58173;52.500;5.494;2023-03-08T13:33:52;7.30;65.40
70606;DHT22;58173;52.500;5.494;2023-03-08T13:36:27;7.30;65.20
70606;DHT22;58173;52.500;5.494;2023-03-08T13:39:06;7.30;64.80
70606;DHT22;58173;52.500;5.494;2023-03-08T13:41:39;7.40;64.20
70606;DHT22;58173;52.500;5.494;2023-03-08T13:44:06;7.40;64.00
70606;DHT22;58173;52.500;5.494;2023-03-08T13:46:35;7.50;64.10
70606;DHT22;58173;52.500;5.494;2023-03-08T13:49:03;7.50;64.00
70606;DHT22;58173;52.500;5.494;2023-03-08T13:51:36;7.60;63.80
70606;DHT22;58173;52.500;5.494;2023-03-08T13:54:03;7.70;63.30
70606;DHT22;58173;52.500;5.494;2023-03-08T13:56:30;7.70;63.20
70606;DHT22;58173;52.500;5.494;2023-03-08T13:58:58;7.70;62.90
70606;DHT22;58173;52.500;5.494;2023-03-08T14:01:26;7.80;64.00
70606;DHT22;58173;52.500;5.494;2023-03-08T14:03:54;7.90;62.40
70606;DHT22;58173;52.500;5.494;2023-03-08T14:06:27;8.00;61.70
70606;DHT22;58173;52.500;5.494;2023-03-08T14:08:56;8.00;61.10
70606;DHT22;58173;52.500;5.494;2023-03-08T14:11:32;8.10;60.70
70606;DHT22;58173;52.500;5.494;2023-03-08T14:14:01;8.10;59.90
70606;DHT22;58173;52.500;5.494;2023-03-08T14:16:37;8.20;61.00
70606;DHT22;58173;52.500;5.494;2023-03-08T14:21:52;8.80;61.40
70606;DHT22;58173;52.500;5.494;2023-03-08T14:24:22;8.90;59.40
70606;DHT22;58173;52.500;5.494;2023-03-08T14:29:32;8.80;57.90
70606;DHT22;58173;52.500;5.494;2023-03-08T14:32:32;8.70;57.70
70606;DHT22;58173;52.500;5.494;2023-03-08T14:35:22;8.70;57.30
70606;DHT22;58173;52.500;5.494;2023-03-08T14:37:50;8.60;57.20
70606;DHT22;58173;52.500;5.494;2023-03-08T14:42:55;8.50;57.20
70606;DHT22;58173;52.500;5.494;2023-03-08T14:45:24;8.50;57.40
70606;DHT22;58173;52.500;5.494;2023-03-08T14:47:57;8.40;57.50
70606;DHT22;58173;52.500;5.494;2023-03-08T14:50:28;8.30;57.70
70606;DHT22;58173;52.500;5.494;2023-03-08T14:52:58;8.30;57.80
70606;DHT22;58173;52.500;5.494;2023-03-08T14:55:33;8.30;58.70
70606;DHT22;58173;52.500;5.494;2023-03-08T14:58:09;8.40;58.30
70606;DHT22;58173;52.500;5.494;2023-03-08T15:00:51;8.30;57.90
70606;DHT22;58173;52.500;5.494;2023-03-08T15:03:18;8.20;57.80
70606;DHT22;58173;52.500;5.494;2023-03-08T15:05:45;8.10;57.90
70606;DHT22;58173;52.500;5.494;2023-03-08T15:08:13;8.00;58.20
70606;DHT22;58173;52.500;5.494;2023-03-08T15:10:41;7.90;58.40
70606;DHT22;58173;52.500;5.494;2023-03-08T15:13:13;7.80;58.50
70606;DHT22;58173;52.500;5.494;2023-03-08T15:15:40;7.80;58.50
70606;DHT22;58173;52.500;5.494;2023-03-08T15:18:07;7.80;58.50
70606;DHT22;58173;52.500;5.494;2023-03-08T15:20:36;7.70;58.60
70606;DHT22;58173;52.500;5.494;2023-03-08T15:23:06;7.70;58.80
70606;DHT22;58173;52.500;5.494;2023-03-08T15:25:36;7.60;58.80
70606;DHT22;58173;52.500;5.494;2023-03-08T15:28:04;7.60;58.80
70606;DHT22;58173;52.500;5.494;2023-03-08T15:30:31;7.60;58.80
70606;DHT22;58173;52.500;5.494;2023-03-08T15:32:58;7.60;59.00
70606;DHT22;58173;52.500;5.494;2023-03-08T15:35:26;7.50;59.50
70606;DHT22;58173;52.500;5.494;2023-03-08T15:37:53;7.50;59.60
70606;DHT22;58173;52.500;5.494;2023-03-08T15:40:23;7.40;59.80
70606;DHT22;58173;52.500;5.494;2023-03-08T15:42:50;7.40;60.80
70606;DHT22;58173;52.500;5.494;2023-03-08T15:45:17;7.40;60.00
70606;DHT22;58173;52.500;5.494;2023-03-08T15:48:06;7.40;60.10
70606;DHT22;58173;52.500;5.494;2023-03-08T15:50:33;7.40;60.10
70606;DHT22;58173;52.500;5.494;2023-03-08T15:53:01;7.40;60.10
70606;DHT22;58173;52.500;5.494;2023-03-08T15:55:29;7.40;60.00
70606;DHT22;58173;52.500;5.494;2023-03-08T15:57:56;7.40;60.00
70606;DHT22;58173;52.500;5.494;2023-03-08T16:00:24;7.40;60.20
70606;DHT22;58173;52.500;5.494;2023-03-08T16:02:52;7.40;60.00
70606;DHT22;58173;52.500;5.494;2023-03-08T16:05:20;7.40;60.10
70606;DHT22;58173;52.500;5.494;2023-03-08T16:08:00;7.40;60.20
70606;DHT22;58173;52.500;5.494;2023-03-08T16:10:30;7.30;60.20
70606;DHT22;58173;52.500;5.494;2023-03-08T16:12:58;7.30;60.40
70606;DHT22;58173;52.500;5.494;2023-03-08T16:15:25;7.30;60.40
70606;DHT22;58173;52.500;5.494;2023-03-08T16:17:52;7.20;60.50
70606;DHT22;58173;52.500;5.494;2023-03-08T16:20:19;7.30;60.90
70606;DHT22;58173;52.500;5.494;2023-03-08T16:22:48;7.20;60.90
70606;DHT22;58173;52.500;5.494;2023-03-08T16:25:16;7.20;61.00
70606;DHT22;58173;52.500;5.494;2023-03-08T16:27:43;7.10;61.00
70606;DHT22;58173;52.500;5.494;2023-03-08T16:30:11;7.00;61.20
70606;DHT22;58173;52.500;5.494;2023-03-08T16:32:38;7.00;61.50
70606;DHT22;58173;52.500;5.494;2023-03-08T16:35:05;6.90;61.80
70606;DHT22;58173;52.500;5.494;2023-03-08T16:37:32;6.80;62.00
70606;DHT22;58173;52.500;5.494;2023-03-08T16:39:59;6.80;62.40
70606;DHT22;58173;52.500;5.494;2023-03-08T16:42:28;6.70;62.50
70606;DHT22;58173;52.500;5.494;2023-03-08T16:44:55;6.70;62.70
70606;DHT22;58173;52.500;5.494;2023-03-08T16:47:23;6.60;62.80
70606;DHT22;58173;52.500;5.494;2023-03-08T16:49:51;6.50;62.90
70606;DHT22;58173;52.500;5.494;2023-03-08T16:52:19;6.50;63.10
70606;DHT22;58173;52.500;5.494;2023-03-08T16:54:45;6.50;63.20
70606;DHT22;58173;52.500;5.494;2023-03-08T16:57:14;6.50;63.30
70606;DHT22;58173;52.500;5.494;2023-03-08T16:59:46;6.40;63.40
70606;DHT22;58173;52.500;5.494;2023-03-08T17:02:18;6.40;63.70
70606;DHT22;58173;52.500;5.494;2023-03-08T17:04:46;6.40;63.70
70606;DHT22;58173;52.500;5.494;2023-03-08T17:07:13;6.30;63.60
70606;DHT22;58173;52.500;5.494;2023-03-08T17:09:40;6.30;63.60
70606;DHT22;58173;52.500;5.494;2023-03-08T17:12:08;6.30;63.70
70606;DHT22;58173;52.500;5.494;2023-03-08T17:14:35;6.40;63.70
70606;DHT22;58173;52.500;5.494;2023-03-08T17:17:03;6.30;64.50
70606;DHT22;58173;52.500;5.494;2023-03-08T17:19:30;6.30;63.60
70606;DHT22;58173;52.500;5.494;2023-03-08T17:21:57;6.20;63.70
70606;DHT22;58173;52.500;5.494;2023-03-08T17:24:24;6.20;63.70
70606;DHT22;58173;52.500;5.494;2023-03-08T17:26:54;6.20;63.90
70606;DHT22;58173;52.500;5.494;2023-03-08T17:29:21;6.10;63.90